sensor_id;sensor_type;location;lat;lon;timestamp;pressure;altitude;pressure_sealevel;temperature;humidity
59315;BME280;46521;50.160;20.802;2023-02-18T00:15:52;99159.98;;;7.91;84.44
59315;BME280;46521;50.160;20.802;2023-02-18T00:26:08;99169.56;;;8.17;83.73
59315;BME280;46521;50.160;20.802;2023-02-18T00:36:13;99178.11;;;8.27;83.34
59315;BME280;46521;50.160;20.802;2023-02-18T00:46:17;99183.55;;;8.42;82.42
59315;BME280;46521;50.160;20.802;2023-02-18T00:56:19;99196.10;;;8.48;82.66
59315;BME280;46521;50.160;20.802;2023-02-18T01:06:21;99215.34;;;8.41;83.52
59315;BME280;46521;50.160;20.802;2023-02-18T01:16:23;99220.78;;;8.23;82.57
59315;BME280;46521;50.160;20.802;2023-02-18T01:26:25;99219.08;;;7.97;83.39
59315;BME280;46521;50.160;20.802;2023-02-18T01:36:26;99217.10;;;7.99;83.99
59315;BME280;46521;50.160;20.802;2023-02-18T01:46:28;99209.20;;;7.99;82.94
59315;BME280;46521;50.160;20.802;2023-02-18T02:06:53;99187.47;;;7.81;80.00
59315;BME280;46521;50.160;20.802;2023-02-18T02:27:20;99228.48;;;7.49;76.84
59315;BME280;46521;50.160;20.802;2023-02-18T02:37:41;99249.78;;;7.29;75.65
59315;BME280;46521;50.160;20.802;2023-02-18T02:47:58;99255.78;;;7.13;73.23
59315;BME280;46521;50.160;20.802;2023-02-18T02:58:02;99280.45;;;6.94;72.73
59315;BME280;46521;50.160;20.802;2023-02-18T03:08:08;99298.08;;;6.76;73.60
59315;BME280;46521;50.160;20.802;2023-02-18T03:18:21;99305.22;;;6.65;74.16
59315;BME280;46521;50.160;20.802;2023-02-18T03:28:27;99322.58;;;6.58;73.97
59315;BME280;46521;50.160;20.802;2023-02-18T03:49:02;99333.09;;;6.58;72.72
59315;BME280;46521;50.160;20.802;2023-02-18T03:59:04;99343.94;;;6.45;70.58
59315;BME280;46521;50.160;20.802;2023-02-18T04:09:05;99356.33;;;6.35;69.42
59315;BME280;46521;50.160;20.802;2023-02-18T04:19:09;99380.19;;;6.24;69.15
59315;BME280;46521;50.160;20.802;2023-02-18T04:29:10;99385.61;;;6.12;68.98
59315;BME280;46521;50.160;20.802;2023-02-18T04:39:12;99378.45;;;6.05;69.44
59315;BME280;46521;50.160;20.802;2023-02-18T04:49:14;99366.91;;;5.98;69.30
59315;BME280;46521;50.160;20.802;2023-02-18T04:59:16;99371.90;;;5.81;69.45
59315;BME280;46521;50.160;20.802;2023-02-18T05:09:17;99387.08;;;5.87;67.58
59315;BME280;46521;50.160;20.802;2023-02-18T05:19:19;99382.11;;;5.84;66.32
59315;BME280;46521;50.160;20.802;2023-02-18T05:29:20;99390.45;;;5.70;67.40
59315;BME280;46521;50.160;20.802;2023-02-18T05:39:22;99392.97;;;5.62;68.21
59315;BME280;46521;50.160;20.802;2023-02-18T05:49:24;99383.61;;;5.49;68.06
59315;BME280;46521;50.160;20.802;2023-02-18T05:59:25;99404.81;;;5.66;67.39
59315;BME280;46521;50.160;20.802;2023-02-18T06:09:27;99405.80;;;5.65;66.93
59315;BME280;46521;50.160;20.802;2023-02-18T06:19:28;99425.80;;;5.66;66.76
59315;BME280;46521;50.160;20.802;2023-02-18T06:29:30;99425.27;;;5.62;67.27
59315;BME280;46521;50.160;20.802;2023-02-18T06:39:31;99414.16;;;5.88;65.37
59315;BME280;46521;50.160;20.802;2023-02-18T06:49:33;99424.66;;;5.98;64.42
59315;BME280;46521;50.160;20.802;2023-02-18T06:59:36;99429.33;;;6.04;64.35
59315;BME280;46521;50.160;20.802;2023-02-18T07:09:38;99441.73;;;6.11;63.13
59315;BME280;46521;50.160;20.802;2023-02-18T07:19:39;99456.64;;;6.11;62.67
59315;BME280;46521;50.160;20.802;2023-02-18T07:29:41;99463.66;;;6.20;62.16
59315;BME280;46521;50.160;20.802;2023-02-18T07:39:43;99457.16;;;6.24;62.01
59315;BME280;46521;50.160;20.802;2023-02-18T07:49:45;99463.47;;;6.31;59.90
59315;BME280;46521;50.160;20.802;2023-02-18T07:59:47;99462.80;;;6.29;60.74
59315;BME280;46521;50.160;20.802;2023-02-18T08:09:48;99458.22;;;6.31;61.47
59315;BME280;46521;50.160;20.802;2023-02-18T08:19:50;99469.52;;;6.42;61.06
59315;BME280;46521;50.160;20.802;2023-02-18T08:29:52;99482.45;;;6.53;61.23
59315;BME280;46521;50.160;20.802;2023-02-18T08:39:53;99483.62;;;6.68;61.32
59315;BME280;46521;50.160;20.802;2023-02-18T08:49:55;99492.38;;;7.05;60.43
59315;BME280;46521;50.160;20.802;2023-02-18T08:59:56;99482.23;;;7.28;60.68
59315;BME280;46521;50.160;20.802;2023-02-18T09:09:58;99488.86;;;7.32;59.81
59315;BME280;46521;50.160;20.802;2023-02-18T09:19:59;99479.06;;;7.43;58.39
59315;BME280;46521;50.160;20.802;2023-02-18T09:30:01;99455.58;;;7.67;57.43
59315;BME280;46521;50.160;20.802;2023-02-18T09:40:03;99465.23;;;7.85;57.70
59315;BME280;46521;50.160;20.802;2023-02-18T09:50:12;99460.34;;;7.90;57.39
59315;BME280;46521;50.160;20.802;2023-02-18T10:20:30;99434.03;;;7.46;56.55
59315;BME280;46521;50.160;20.802;2023-02-18T10:30:39;99427.36;;;7.33;56.15
59315;BME280;46521;50.160;20.802;2023-02-18T10:51:14;99420.06;;;7.45;55.59
59315;BME280;46521;50.160;20.802;2023-02-18T11:01:20;99392.71;;;7.64;55.71
59315;BME280;46521;50.160;20.802;2023-02-18T11:11:29;99376.71;;;7.84;55.64
59315;BME280;46521;50.160;20.802;2023-02-18T11:21:36;99357.05;;;8.04;55.39
59315;BME280;46521;50.160;20.802;2023-02-18T11:31:44;99348.84;;;8.16;53.71
59315;BME280;46521;50.160;20.802;2023-02-18T11:42:04;99339.65;;;8.20;54.42
59315;BME280;46521;50.160;20.802;2023-02-18T11:52:22;99338.80;;;8.19;54.52
59315;BME280;46521;50.160;20.802;2023-02-18T12:02:36;99311.64;;;8.19;54.69
59315;BME280;46521;50.160;20.802;2023-02-18T12:12:51;99325.37;;;7.88;56.44
59315;BME280;46521;50.160;20.802;2023-02-18T13:13:54;99278.63;;;6.87;63.23
59315;BME280;46521;50.160;20.802;2023-02-18T13:24:05;99268.56;;;6.82;64.30
59315;BME280;46521;50.160;20.802;2023-02-18T13:34:24;99265.09;;;6.81;64.41
59315;BME280;46521;50.160;20.802;2023-02-18T14:14:41;99215.72;;;6.67;66.03
59315;BME280;46521;50.160;20.802;2023-02-18T14:24:47;99175.44;;;6.58;66.27
59315;BME280;46521;50.160;20.802;2023-02-18T14:45:30;99127.28;;;6.31;67.15
59315;BME280;46521;50.160;20.802;2023-02-18T14:55:36;99101.74;;;6.16;68.21
59315;BME280;46521;50.160;20.802;2023-02-18T15:05:39;99086.09;;;6.06;68.36
59315;BME280;46521;50.160;20.802;2023-02-18T15:15:42;99061.11;;;6.02;69.04
59315;BME280;46521;50.160;20.802;2023-02-18T15:25:50;99028.14;;;5.99;68.99
59315;BME280;46521;50.160;20.802;2023-02-18T15:36:03;99008.84;;;5.90;69.74
59315;BME280;46521;50.160;20.802;2023-02-18T15:46:11;98989.61;;;5.82;69.99
59315;BME280;46521;50.160;20.802;2023-02-18T15:56:29;98970.66;;;5.70;70.53
59315;BME280;46521;50.160;20.802;2023-02-18T16:06:37;98937.12;;;5.55;71.18
59315;BME280;46521;50.160;20.802;2023-02-18T16:16:39;98901.63;;;5.43;71.08
59315;BME280;46521;50.160;20.802;2023-02-18T16:26:41;98882.67;;;5.31;71.59
59315;BME280;46521;50.160;20.802;2023-02-18T16:36:44;98853.80;;;5.23;72.10
59315;BME280;46521;50.160;20.802;2023-02-18T16:47:05;98848.04;;;5.19;72.83
59315;BME280;46521;50.160;20.802;2023-02-18T16:57:09;98843.41;;;5.13;73.32
59315;BME280;46521;50.160;20.802;2023-02-18T17:07:11;98859.08;;;5.05;73.78
59315;BME280;46521;50.160;20.802;2023-02-18T17:17:12;98849.56;;;5.04;74.19
59315;BME280;46521;50.160;20.802;2023-02-18T17:27:14;98861.09;;;5.11;74.26
59315;BME280;46521;50.160;20.802;2023-02-18T17:37:16;98853.59;;;5.16;74.93
59315;BME280;46521;50.160;20.802;2023-02-18T17:47:17;98856.36;;;5.15;75.06
59315;BME280;46521;50.160;20.802;2023-02-18T17:57:19;98848.23;;;5.26;76.12
59315;BME280;46521;50.160;20.802;2023-02-18T18:07:20;98837.49;;;5.37;77.02
59315;BME280;46521;50.160;20.802;2023-02-18T18:17:22;98831.16;;;5.48;77.16
59315;BME280;46521;50.160;20.802;2023-02-18T18:27:26;98831.08;;;5.58;77.86
59315;BME280;46521;50.160;20.802;2023-02-18T18:37:27;98831.92;;;5.67;78.18
59315;BME280;46521;50.160;20.802;2023-02-18T18:47:29;98832.51;;;5.87;79.37
59315;BME280;46521;50.160;20.802;2023-02-18T18:57:30;98840.83;;;6.08;79.60
59315;BME280;46521;50.160;20.802;2023-02-18T19:07:31;98849.44;;;6.35;80.16
59315;BME280;46521;50.160;20.802;2023-02-18T19:17:33;98848.33;;;6.71;80.04
59315;BME280;46521;50.160;20.802;2023-02-18T19:27:36;98861.80;;;7.00;80.10
59315;BME280;46521;50.160;20.802;2023-02-18T19:37:38;98867.39;;;7.22;79.56
59315;BME280;46521;50.160;20.802;2023-02-18T19:47:40;98865.41;;;7.40;80.06
59315;BME280;46521;50.160;20.802;2023-02-18T19:57:42;98853.71;;;7.51;80.55
59315;BME280;46521;50.160;20.802;2023-02-18T20:07:44;98878.20;;;7.52;79.25
59315;BME280;46521;50.160;20.802;2023-02-18T20:17:46;98938.39;;;7.55;79.72
59315;BME280;46521;50.160;20.802;2023-02-18T20:27:48;98948.42;;;7.60;79.98
59315;BME280;46521;50.160;20.802;2023-02-18T20:37:49;98960.78;;;7.51;80.11
59315;BME280;46521;50.160;20.802;2023-02-18T20:47:51;98973.91;;;7.43;79.89
59315;BME280;46521;50.160;20.802;2023-02-18T20:57:53;98978.85;;;7.37;80.27
59315;BME280;46521;50.160;20.802;2023-02-18T21:07:54;98987.06;;;7.34;79.82
59315;BME280;46521;50.160;20.802;2023-02-18T21:17:55;99000.38;;;7.33;80.23
59315;BME280;46521;50.160;20.802;2023-02-18T21:27:57;99024.05;;;7.25;80.49
59315;BME280;46521;50.160;20.802;2023-02-18T21:38:02;99036.19;;;7.17;79.73
59315;BME280;46521;50.160;20.802;2023-02-18T21:48:04;99052.13;;;7.16;80.28
59315;BME280;46521;50.160;20.802;2023-02-18T21:58:26;99079.06;;;7.10;79.74
59315;BME280;46521;50.160;20.802;2023-02-18T22:08:27;99111.89;;;6.97;80.23
59315;BME280;46521;50.160;20.802;2023-02-18T22:18:30;99123.38;;;6.88;80.40
59315;BME280;46521;50.160;20.802;2023-02-18T22:28:33;99142.02;;;6.77;80.33
59315;BME280;46521;50.160;20.802;2023-02-18T22:38:36;99180.43;;;6.70;80.44
59315;BME280;46521;50.160;20.802;2023-02-18T22:48:38;99190.51;;;6.56;80.11
59315;BME280;46521;50.160;20.802;2023-02-18T22:58:41;99206.83;;;6.42;79.42
59315;BME280;46521;50.160;20.802;2023-02-18T23:08:43;99247.06;;;6.24;79.77
59315;BME280;46521;50.160;20.802;2023-02-18T23:18:45;99245.12;;;6.08;79.63
59315;BME280;46521;50.160;20.802;2023-02-18T23:28:47;99280.39;;;5.96;79.43
59315;BME280;46521;50.160;20.802;2023-02-18T23:38:52;99288.63;;;5.83;79.04
59315;BME280;46521;50.160;20.802;2023-02-18T23:48:54;99299.14;;;5.73;78.85
